BVY weather

Beverly Municipal Airport
Beverly, Massachusetts, United States

Public forecast

Using degrees Fahrenheit for public forecast. Weather courtesy of forecast.io.

Current aviation weather report (METAR) for Beverly Municipal Airport

Retrieved 2019/11/18 07:11 UTC (31 minutes ago):

KBVY 180711Z AUTO 01011KT 10SM FEW017 OVC029 03/M02 A3006 RMK AO2 T00281022

Closest aviation forecast (TAF) to Beverly Municipal Airport

Closest forecast is General Edward Lawrence Logan International Airport, 13.8 nm (25.5 km) SSW. Retrieved 2019/11/18 06:38 UTC (1 hour ago):

TAF KBOS 180533Z 1806/1912 36010G20KT P6SM OVC030 FM180900 02012G20KT P6SM OVC015 FM181100 01012G22KT P6SM VCSH OVC015 FM181600 36016G28KT 5SM -RA BR OVC008 FM190100 36014G23KT 2SM BR VCSH OVC008 FM190500 33009KT 2SM BR VCSH OVC008 FM190900 30006KT 5SM BR VCSH OVC010